createdAt,value
2019-01-18T00:00:43.616Z,25.47
2019-01-18T00:03:16.464Z,92.10
2019-01-18T00:05:51.623Z,45.83
2019-01-18T00:08:42.449Z,27.87
2019-01-18T00:11:21.278Z,59.90
2019-01-18T00:14:02.001Z,41.77
2019-01-18T00:16:54.680Z,71.55
2019-01-18T00:19:37.431Z,39.37
2019-01-18T00:22:19.099Z,43.67
2019-01-18T00:25:01.349Z,80.27
2019-01-18T00:27:44.850Z,69.27
2019-01-18T00:30:28.297Z,75.70
2019-01-18T00:33:10.893Z,57.93
2019-01-18T00:35:50.400Z,30.60
2019-01-18T00:38:36.007Z,31.85
2019-01-18T00:41:17.621Z,83.53
2019-01-18T00:43:59.518Z,28.15
2019-01-18T00:46:44.430Z,26.25
2019-01-18T00:49:19.946Z,39.20
2019-01-18T00:52:12.601Z,39.57
2019-01-18T00:55:04.756Z,34.35
2019-01-18T00:57:43.376Z,35.13
2019-01-18T01:00:27.204Z,37.03
2019-01-18T01:03:09.732Z,31.30
2019-01-18T01:05:51.532Z,34.50
2019-01-18T01:08:23.777Z,34.77
2019-01-18T01:10:59.773Z,26.90
2019-01-18T01:13:34.200Z,33.83
2019-01-18T01:16:04.827Z,34.53
2019-01-18T01:21:55.261Z,25.77
2019-01-18T01:24:26.019Z,24.45
2019-01-18T01:27:02.954Z,18.75
2019-01-18T01:32:35.652Z,20.70
2019-01-18T01:35:07.283Z,19.90
2019-01-18T01:37:37.596Z,18.70
2019-01-18T01:40:13.271Z,17.75
2019-01-18T01:42:45.631Z,16.77
2019-01-18T01:45:15.848Z,15.77
2019-01-18T01:47:46.111Z,16.37
2019-01-18T01:50:21.953Z,13.73
2019-01-18T01:52:55.163Z,15.00
2019-01-18T01:55:25.029Z,15.40
2019-01-18T01:57:54.858Z,16.47
2019-01-18T02:00:27.055Z,15.95
2019-01-18T02:02:57.913Z,17.50
2019-01-18T02:05:29.207Z,18.05
2019-01-18T02:08:00.061Z,20.40
2019-01-18T02:10:31.457Z,20.25
2019-01-18T02:13:01.356Z,17.63
2019-01-18T02:15:32.039Z,17.23
2019-01-18T02:18:02.045Z,15.30
2019-01-18T02:24:00.392Z,14.63
2019-01-18T02:26:32.663Z,14.60
2019-01-18T02:29:03.247Z,14.03
2019-01-18T02:34:55.583Z,12.50
2019-01-18T02:37:31.859Z,10.80
2019-01-18T02:40:02.059Z,9.60
2019-01-18T02:42:32.438Z,9.85
2019-01-18T02:45:02.762Z,7.73
2019-01-18T02:47:35.716Z,8.73
2019-01-18T02:50:10.616Z,10.07
2019-01-18T02:52:41.412Z,9.53
2019-01-18T02:55:14.385Z,7.72
2019-01-18T02:57:45.729Z,7.43
2019-01-18T03:00:22.193Z,9.03
2019-01-18T03:02:57.846Z,8.30
2019-01-18T03:05:28.985Z,7.83
2019-01-18T03:07:58.833Z,7.75
2019-01-18T03:10:30.362Z,8.05
2019-01-18T03:13:00.733Z,8.10
2019-01-18T03:15:30.860Z,7.50
2019-01-18T03:18:13.421Z,6.93
2019-01-18T03:20:50.452Z,5.63
2019-01-18T03:23:27.247Z,7.67
2019-01-18T03:26:06.871Z,5.50
2019-01-18T03:28:40.624Z,3.37
2019-01-18T03:31:24.726Z,4.97
2019-01-18T03:34:24.680Z,4.65
2019-01-18T03:37:27.001Z,5.97
2019-01-18T03:40:09.916Z,4.77
2019-01-18T03:42:56.652Z,3.07
2019-01-18T03:45:43.956Z,3.98
2019-01-18T03:48:18.462Z,5.20
2019-01-18T03:50:51.115Z,5.43
2019-01-18T03:53:21.062Z,4.30
2019-01-18T03:55:51.663Z,6.00
2019-01-18T03:58:21.929Z,6.20
2019-01-18T04:00:52.417Z,6.47
2019-01-18T04:03:26.871Z,6.20
2019-01-18T04:05:58.011Z,6.07
2019-01-18T04:08:27.936Z,5.90
2019-01-18T04:10:57.858Z,4.60
2019-01-18T04:13:28.109Z,4.67
2019-01-18T04:15:57.954Z,5.97
2019-01-18T04:18:28.379Z,5.90
2019-01-18T04:20:58.575Z,5.30
2019-01-18T04:23:28.649Z,5.62
2019-01-18T04:25:59.930Z,5.27
2019-01-18T04:28:29.916Z,4.87
2019-01-18T04:30:59.974Z,4.63
2019-01-18T04:33:30.554Z,4.43
2019-01-18T04:36:00.538Z,5.20
2019-01-18T04:38:31.345Z,4.45
2019-01-18T04:41:01.331Z,5.23
2019-01-18T04:43:31.266Z,4.47
2019-01-18T04:46:01.629Z,5.20
2019-01-18T04:48:32.408Z,5.45
2019-01-18T04:51:02.224Z,4.10
2019-01-18T04:53:32.315Z,5.17
2019-01-18T04:56:02.691Z,5.77
2019-01-18T04:58:32.678Z,5.10
2019-01-18T05:01:02.576Z,5.00
2019-01-18T05:03:35.534Z,4.42
2019-01-18T05:06:07.034Z,5.03
2019-01-18T05:08:37.533Z,4.10
2019-01-18T05:11:07.565Z,5.33
2019-01-18T05:13:37.536Z,4.85
2019-01-18T05:16:09.483Z,5.07
2019-01-18T05:22:01.290Z,4.30
2019-01-18T05:24:32.949Z,4.72
2019-01-18T05:27:09.626Z,5.40
2019-01-18T05:32:56.465Z,5.47
2019-01-18T05:35:27.166Z,5.33
2019-01-18T05:37:57.677Z,5.50
2019-01-18T05:40:27.974Z,5.12
2019-01-18T05:42:57.845Z,5.60
2019-01-18T05:45:27.881Z,5.05
2019-01-18T05:48:07.661Z,4.43
2019-01-18T05:50:38.292Z,6.50
2019-01-18T05:53:15.158Z,7.47
2019-01-18T05:55:59.487Z,8.20
2019-01-18T05:58:42.759Z,6.00
2019-01-18T06:01:15.571Z,3.83
2019-01-18T06:04:06.818Z,7.83
2019-01-18T06:07:03.099Z,7.65
2019-01-18T06:09:53.409Z,6.45
2019-01-18T06:12:27.852Z,5.42
2019-01-18T06:14:57.852Z,3.80
2019-01-18T06:17:28.755Z,6.25
2019-01-18T06:19:58.785Z,5.50
2019-01-18T06:22:29.308Z,3.35
2019-01-18T06:24:59.458Z,3.90
2019-01-18T06:27:29.677Z,2.52
2019-01-18T06:29:59.677Z,5.43
2019-01-18T06:32:29.798Z,3.70
2019-01-18T06:34:59.840Z,3.97
2019-01-18T06:37:30.912Z,4.00
2019-01-18T06:40:01.557Z,3.17
2019-01-18T06:42:38.603Z,5.05
2019-01-18T06:45:16.391Z,3.63
2019-01-18T06:47:46.289Z,7.07
2019-01-18T06:50:51.013Z,8.63
2019-01-18T06:53:24.511Z,4.40
2019-01-18T06:55:56.013Z,5.67
2019-01-18T06:58:26.166Z,6.92
2019-01-18T07:01:00.048Z,7.70
2019-01-18T07:03:34.178Z,6.55
2019-01-18T07:06:17.923Z,6.07
2019-01-18T07:08:47.765Z,5.75
2019-01-18T07:11:18.517Z,8.13
2019-01-18T07:13:59.605Z,6.77
2019-01-18T07:16:44.609Z,6.43
2019-01-18T07:19:21.297Z,8.28
2019-01-18T07:22:17.616Z,5.90
2019-01-18T07:24:56.164Z,5.00
2019-01-18T07:28:00.559Z,5.78
2019-01-18T07:30:58.754Z,7.97
2019-01-18T07:33:29.437Z,6.33
2019-01-18T07:35:59.923Z,6.87
2019-01-18T07:38:47.137Z,5.43
2019-01-18T07:41:55.428Z,5.23
2019-01-18T07:44:31.378Z,5.03
2019-01-18T07:47:23.080Z,9.73
2019-01-18T07:49:58.993Z,10.30
2019-01-18T07:52:47.346Z,8.33
2019-01-18T07:55:40.414Z,7.95
2019-01-18T07:58:44.668Z,9.57
2019-01-18T08:01:22.274Z,8.10
2019-01-18T08:04:16.044Z,9.13
2019-01-18T08:06:59.479Z,7.17
2019-01-18T08:13:12.599Z,6.73
2019-01-18T08:16:02.713Z,7.87
2019-01-18T08:19:05.602Z,6.55
2019-01-18T08:25:05.153Z,5.40
2019-01-18T08:27:52.320Z,6.35
2019-01-18T08:30:45.136Z,4.62
2019-01-18T08:36:12.241Z,5.80
2019-01-18T08:38:55.414Z,5.30
2019-01-18T08:41:38.010Z,5.63
2019-01-18T08:44:10.184Z,4.13
2019-01-18T08:46:48.314Z,4.67
2019-01-18T08:49:45.301Z,5.33
2019-01-18T08:52:38.917Z,3.57
2019-01-18T08:55:34.546Z,3.35
2019-01-18T08:58:14.514Z,3.23
2019-01-18T09:01:00.286Z,5.80
2019-01-18T09:04:03.400Z,4.12
2019-01-18T09:07:04.831Z,3.40
2019-01-18T09:09:41.098Z,5.50
2019-01-18T09:12:34.832Z,3.63
2019-01-18T09:15:49.735Z,5.07
2019-01-18T09:18:54.950Z,6.77
2019-01-18T09:21:51.711Z,7.33
2019-01-18T09:24:45.759Z,7.23
2019-01-18T09:27:23.304Z,6.13
2019-01-18T09:30:19.772Z,9.03
2019-01-18T09:33:15.187Z,5.47
2019-01-18T09:36:16.479Z,5.33
2019-01-18T09:39:12.799Z,6.97
2019-01-18T09:42:08.894Z,7.37
2019-01-18T09:44:43.860Z,7.87
2019-01-18T09:47:18.740Z,7.43
2019-01-18T09:49:54.269Z,4.97
2019-01-18T09:52:31.082Z,7.13
2019-01-18T09:55:29.846Z,9.58
2019-01-18T09:58:19.935Z,9.77
2019-01-18T10:01:13.033Z,10.07
2019-01-18T10:07:09.775Z,5.33
2019-01-18T10:09:49.794Z,4.23
2019-01-18T10:16:50.976Z,4.70
2019-01-18T10:19:33.243Z,3.10
2019-01-18T10:22:25.216Z,3.40
2019-01-18T10:25:29.215Z,2.17
2019-01-18T10:31:19.728Z,2.70
2019-01-18T10:33:54.613Z,2.00
2019-01-18T10:36:38.806Z,2.30
2019-01-18T10:39:37.886Z,2.57
2019-01-18T10:46:00.548Z,1.93
2019-01-18T10:48:55.672Z,2.90
2019-01-18T11:04:53.325Z,2.55
2019-01-18T11:07:35.231Z,1.37
2019-01-18T11:10:09.007Z,1.30
2019-01-18T11:13:25.248Z,2.03
2019-01-18T11:16:12.271Z,2.00
2019-01-18T11:19:07.779Z,1.57
2019-01-18T11:21:44.139Z,1.77
2019-01-18T11:24:23.237Z,2.50
2019-01-18T11:27:09.111Z,1.73
2019-01-18T11:29:54.138Z,2.07
2019-01-18T11:32:47.387Z,2.12
2019-01-18T11:35:22.478Z,2.17
2019-01-18T11:38:01.354Z,1.93
2019-01-18T11:40:58.928Z,1.70
2019-01-18T11:44:17.580Z,2.50
2019-01-18T11:47:23.941Z,2.40
2019-01-18T11:49:57.865Z,1.87
2019-01-18T11:52:33.528Z,2.30
2019-01-18T11:55:21.210Z,1.57
2019-01-18T11:58:36.068Z,2.30
2019-01-18T12:01:25.489Z,1.70
2019-01-18T12:04:21.400Z,1.40
2019-01-18T12:07:19.038Z,1.63
2019-01-18T12:10:27.035Z,2.13
2019-01-18T12:13:02.575Z,1.67
2019-01-18T12:15:53.356Z,2.00
2019-01-18T12:18:33.726Z,1.40
2019-01-18T12:21:22.811Z,1.40
2019-01-18T12:24:05.580Z,2.53
2019-01-18T12:27:11.815Z,1.80
2019-01-18T12:30:08.594Z,0.83
2019-01-18T12:32:52.442Z,1.50
2019-01-18T12:35:37.655Z,1.07
2019-01-18T12:38:39.946Z,1.63
2019-01-18T12:41:27.745Z,1.07
2019-01-18T12:44:00.454Z,1.43
2019-01-18T12:46:42.053Z,1.70
2019-01-18T12:49:13.248Z,1.50
2019-01-18T12:52:02.129Z,0.93
2019-01-18T12:54:33.230Z,1.40
2019-01-18T12:57:07.555Z,2.03
2019-01-18T12:59:46.382Z,0.70
2019-01-18T13:02:35.409Z,1.80
2019-01-18T13:08:23.768Z,1.07
2019-01-18T13:10:56.348Z,1.67
2019-01-18T13:13:38.918Z,1.32
2019-01-18T13:19:36.882Z,1.37
2019-01-18T13:22:15.199Z,1.52
2019-01-18T13:24:53.757Z,1.37
2019-01-18T13:27:29.538Z,1.33
2019-01-18T13:29:59.504Z,0.97
2019-01-18T13:32:41.689Z,0.93
2019-01-18T13:35:20.974Z,0.80
2019-01-18T13:37:55.200Z,2.27
2019-01-18T13:40:30.148Z,1.40
2019-01-18T13:43:07.911Z,1.50
2019-01-18T13:45:53.721Z,1.10
2019-01-18T13:48:36.328Z,1.65
2019-01-18T13:51:50.792Z,2.57
2019-01-18T13:55:11.484Z,1.20
2019-01-18T13:58:18.933Z,0.90
2019-01-18T14:00:59.801Z,1.80
2019-01-18T14:03:44.185Z,2.10
2019-01-18T14:06:36.597Z,3.10
2019-01-18T14:09:25.151Z,2.40
2019-01-18T14:12:03.120Z,1.70
2019-01-18T14:14:45.710Z,1.67
2019-01-18T14:17:23.413Z,1.27
2019-01-18T14:20:22.813Z,1.60
2019-01-18T14:23:09.801Z,1.80
2019-01-18T14:25:59.535Z,1.25
2019-01-18T14:28:40.990Z,2.03
2019-01-18T14:31:35.619Z,1.53
2019-01-18T14:34:40.961Z,1.30
2019-01-18T14:37:29.927Z,1.33
2019-01-18T14:40:30.806Z,1.07
2019-01-18T14:43:34.279Z,2.10
2019-01-18T14:46:16.083Z,1.42
2019-01-18T14:49:10.504Z,1.33
2019-01-18T14:52:03.544Z,11.43
2019-01-18T14:55:24.598Z,16.52
2019-01-18T14:58:17.020Z,3.80
2019-01-18T15:00:55.527Z,8.00
2019-01-18T15:03:36.154Z,3.93
2019-01-18T15:09:57.575Z,7.15
2019-01-18T15:12:53.736Z,4.53
2019-01-18T15:15:45.158Z,8.60
2019-01-18T15:19:00.400Z,3.47
2019-01-18T15:21:54.516Z,2.73
2019-01-18T15:30:53.123Z,2.60
2019-01-18T15:33:26.256Z,1.57
2019-01-18T15:36:03.466Z,1.23
2019-01-18T15:38:42.516Z,1.17
2019-01-18T15:42:01.802Z,1.50
2019-01-18T15:44:37.139Z,1.80
2019-01-18T15:47:25.036Z,1.87
2019-01-18T15:50:05.349Z,1.83
2019-01-18T15:52:41.275Z,1.47
2019-01-18T15:55:30.300Z,1.60
2019-01-18T15:58:05.213Z,1.43
2019-01-18T16:00:55.576Z,1.30
2019-01-18T16:03:45.292Z,1.37
2019-01-18T16:07:01.712Z,2.17
2019-01-18T16:09:47.172Z,1.13
2019-01-18T16:12:31.634Z,1.50
2019-01-18T16:15:10.774Z,1.30
2019-01-18T16:18:03.225Z,1.70
2019-01-18T16:21:04.826Z,1.90
2019-01-18T16:27:01.765Z,2.60
2019-01-18T16:29:33.340Z,2.20
2019-01-18T16:32:08.763Z,2.50
2019-01-18T16:34:47.988Z,1.40
2019-01-18T16:37:27.962Z,1.73
2019-01-18T16:40:00.946Z,2.27
2019-01-18T16:42:36.015Z,1.20
2019-01-18T16:45:14.980Z,1.80
2019-01-18T16:48:01.877Z,1.53
2019-01-18T16:50:46.264Z,1.98
2019-01-18T16:53:41.370Z,1.60
2019-01-18T16:56:14.914Z,1.87
2019-01-18T16:59:15.234Z,2.00
2019-01-18T17:01:56.915Z,2.00
2019-01-18T17:04:36.527Z,2.10
2019-01-18T17:07:20.522Z,1.90
2019-01-18T17:09:58.134Z,1.93
2019-01-18T17:12:31.302Z,2.23
2019-01-18T17:15:31.188Z,2.07
2019-01-18T17:18:07.027Z,2.27
2019-01-18T17:20:56.433Z,2.17
2019-01-18T17:23:32.901Z,1.57
2019-01-18T17:26:09.858Z,2.20
2019-01-18T17:28:42.368Z,2.57
2019-01-18T17:31:15.071Z,2.40
2019-01-18T17:33:48.681Z,1.97
2019-01-18T17:36:25.102Z,2.10
2019-01-18T17:39:20.971Z,2.60
2019-01-18T17:45:39.010Z,2.10
2019-01-18T17:48:19.207Z,2.43
2019-01-18T17:51:23.836Z,1.93
2019-01-18T17:54:34.670Z,1.90
2019-01-18T17:57:44.504Z,2.00
2019-01-18T18:01:08.880Z,2.33
2019-01-18T18:04:06.548Z,2.00
2019-01-18T18:07:04.300Z,1.40
2019-01-18T18:10:23.372Z,2.20
2019-01-18T18:13:41.951Z,1.77
2019-01-18T18:20:01.990Z,2.10
2019-01-18T18:23:29.444Z,2.55
2019-01-18T18:30:13.983Z,2.42
2019-01-18T18:33:32.994Z,2.40
2019-01-18T18:36:34.205Z,2.23
2019-01-18T18:39:40.812Z,2.77
2019-01-18T18:42:35.101Z,2.25
2019-01-18T18:45:56.561Z,2.90
2019-01-18T18:48:51.027Z,1.90
2019-01-18T18:52:06.834Z,2.72
2019-01-18T18:55:19.121Z,1.57
2019-01-18T19:01:50.082Z,2.45
2019-01-18T19:04:53.224Z,1.87
2019-01-18T19:07:46.191Z,1.97
2019-01-18T19:10:40.719Z,1.07
2019-01-18T19:17:15.465Z,2.15
2019-01-18T19:20:41.327Z,1.80
2019-01-18T19:24:08.040Z,2.60
2019-01-18T19:27:31.462Z,2.13
2019-01-18T19:31:02.942Z,1.62
2019-01-18T19:34:04.512Z,1.17
2019-01-18T19:37:34.415Z,1.80
2019-01-18T19:40:37.418Z,1.40
2019-01-18T19:43:57.084Z,2.10
2019-01-18T19:47:02.516Z,1.07
2019-01-18T19:53:41.134Z,2.10
2019-01-18T19:56:41.953Z,1.47
2019-01-18T19:59:37.168Z,1.37
2019-01-18T20:02:44.753Z,1.77
2019-01-18T20:05:55.743Z,1.98
2019-01-18T20:09:03.341Z,1.90
2019-01-18T20:12:31.106Z,1.70
2019-01-18T20:15:39.055Z,2.60
2019-01-18T20:18:18.817Z,1.97
2019-01-18T20:21:19.559Z,2.40
2019-01-18T20:24:38.213Z,2.58
2019-01-18T20:28:00.431Z,2.70
2019-01-18T20:31:01.262Z,2.30
2019-01-18T20:33:56.545Z,2.40
2019-01-18T20:40:16.044Z,2.60
2019-01-18T20:43:12.985Z,2.97
2019-01-18T20:46:00.869Z,2.93
2019-01-18T20:48:48.512Z,2.70
2019-01-18T20:51:27.366Z,2.35
2019-01-18T20:54:32.840Z,3.17
2019-01-18T20:57:25.487Z,2.53
2019-01-18T21:00:19.454Z,2.97
2019-01-18T21:03:23.307Z,2.58
2019-01-18T21:09:24.691Z,2.83
2019-01-18T21:12:20.596Z,3.53
2019-01-18T21:15:04.021Z,2.60
2019-01-18T21:18:04.452Z,2.53
2019-01-18T21:20:50.102Z,2.98
2019-01-18T21:23:53.664Z,3.00
2019-01-18T21:26:39.284Z,3.10
2019-01-18T21:29:45.830Z,3.40
2019-01-18T21:32:34.236Z,3.23
2019-01-18T21:35:23.708Z,3.10
2019-01-18T21:38:33.195Z,2.97
2019-01-18T21:41:19.636Z,2.80
2019-01-18T21:44:00.472Z,3.03
2019-01-18T21:46:54.541Z,3.72
2019-01-18T21:49:45.363Z,3.02
2019-01-18T21:52:42.932Z,3.10
2019-01-18T21:55:41.023Z,3.73
2019-01-18T21:58:24.267Z,3.03
2019-01-18T22:01:34.329Z,3.57
2019-01-18T22:04:22.206Z,3.40
2019-01-18T22:07:25.441Z,3.60
2019-01-18T22:10:20.658Z,3.70
2019-01-18T22:16:39.044Z,2.90
2019-01-18T22:19:49.043Z,3.67
2019-01-18T22:22:44.154Z,3.33
2019-01-18T22:25:33.747Z,3.27
2019-01-18T22:28:45.594Z,3.77
2019-01-18T22:31:56.611Z,4.00
2019-01-18T22:35:08.121Z,3.70
2019-01-18T22:37:52.430Z,3.23
2019-01-18T22:40:48.577Z,3.50
2019-01-18T22:43:54.202Z,3.30
2019-01-18T22:47:10.161Z,3.50
2019-01-18T22:49:51.808Z,3.63
2019-01-18T22:52:45.684Z,3.53
2019-01-18T22:55:43.895Z,3.40
2019-01-18T22:58:52.344Z,3.80
2019-01-18T23:01:41.175Z,4.60
2019-01-18T23:04:42.934Z,5.77
2019-01-18T23:07:46.005Z,5.07
2019-01-18T23:10:29.280Z,4.50
2019-01-18T23:13:06.703Z,4.10
2019-01-18T23:15:45.891Z,3.25
2019-01-18T23:18:21.780Z,4.03
2019-01-18T23:21:13.657Z,4.80
2019-01-18T23:24:10.184Z,4.37
2019-01-18T23:27:35.660Z,4.00
2019-01-18T23:33:53.105Z,4.53
2019-01-18T23:36:57.421Z,4.60
2019-01-18T23:43:41.411Z,4.95
2019-01-18T23:46:56.746Z,5.40
2019-01-18T23:49:52.051Z,5.72
2019-01-18T23:53:04.643Z,7.22
2019-01-18T23:56:10.088Z,6.60
2019-01-18T23:59:07.882Z,6.80
